Time;durP1;ratioP1;P1;durP2;ratioP2;P2;SDS_P1;SDS_P2;PMS_P1;PMS_P2;Temp;Humidity;BMP_temperature;BMP_pressure;BME280_temperature;BME280_humidity;BME280_pressure;Samples;Min_cycle;Max_cycle;Signal;HPM_P1;HPM_P2
2022/12/14 00:02:05;;;;;;;334.10;107.07;;;;;;;;;;5051786;28;20187;-47
2022/12/14 00:04:31;;;;;;;365.40;134.37;;;;;;;;;;5058362;28;20251;-47
2022/12/14 00:06:57;;;;;;;363.87;135.40;;;;;;;;;;5057876;28;20303;-47
2022/12/14 00:09:23;;;;;;;372.90;139.33;;;;;;;;;;5049436;28;20231;-47
2022/12/14 00:11:49;;;;;;;357.70;131.30;;;;;;;;;;5047327;28;20638;-47
2022/12/14 00:14:15;;;;;;;355.60;137.13;;;;;;;;;;5052445;28;20222;-47
2022/12/14 00:16:41;;;;;;;351.93;133.87;;;;;;;;;;5056955;28;20187;-47
2022/12/14 00:19:07;;;;;;;401.33;149.23;;;;;;;;;;5048012;28;20243;-47
2022/12/14 00:21:33;;;;;;;368.97;141.90;;;;;;;;;;5046959;28;20212;-48
2022/12/14 00:23:59;;;;;;;362.23;132.00;;;;;;;;;;5046093;28;20247;-47
2022/12/14 00:26:30;;;;;;;360.17;131.10;;;;;;;;;;5054627;28;20278;-47
2022/12/14 00:28:56;;;;;;;317.47;125.60;;;;;;;;;;5047464;28;20183;-47
2022/12/14 00:31:22;;;;;;;354.90;124.90;;;;;;;;;;5055235;28;20222;-47
2022/12/14 00:33:49;;;;;;;349.87;126.10;;;;;;;;;;5066436;28;20798;-47
2022/12/14 00:36:15;;;;;;;300.77;108.57;;;;;;;;;;5053494;28;20245;-47
2022/12/14 00:38:41;;;;;;;357.77;130.07;;;;;;;;;;5048788;28;20212;-48
2022/12/14 00:41:08;;;;;;;331.23;113.00;;;;;;;;;;5062501;28;20249;-47
2022/12/14 00:43:34;;;;;;;320.73;110.27;;;;;;;;;;5066971;28;20658;-47
2022/12/14 00:46:00;;;;;;;254.07;92.23;;;;;;;;;;5062931;28;20208;-49
2022/12/14 00:48:26;;;;;;;342.87;117.17;;;;;;;;;;5053774;28;20643;-47
2022/12/14 00:50:56;;;;;;;363.60;117.33;;;;;;;;;;5056385;28;20215;-47
2022/12/14 00:53:23;;;;;;;319.27;106.43;;;;;;;;;;5059224;28;20210;-47
2022/12/14 00:55:49;;;;;;;288.40;98.03;;;;;;;;;;5052032;28;20214;-47
2022/12/14 00:58:16;;;;;;;271.13;80.07;;;;;;;;;;5066693;28;20267;-47
2022/12/14 01:00:46;;;;;;;302.70;83.07;;;;;;;;;;5055067;28;20285;-47
2022/12/14 01:03:12;;;;;;;278.37;75.43;;;;;;;;;;5060967;28;20251;-47
2022/12/14 01:05:38;;;;;;;283.67;74.93;;;;;;;;;;5061881;28;20325;-47
2022/12/14 01:08:04;;;;;;;297.53;80.07;;;;;;;;;;5064398;28;20182;-47
2022/12/14 01:10:30;;;;;;;309.17;80.60;;;;;;;;;;5062607;28;20770;-47
2022/12/14 01:12:56;;;;;;;325.10;81.10;;;;;;;;;;5045459;28;20223;-47
2022/12/14 01:15:22;;;;;;;290.33;78.07;;;;;;;;;;5060916;28;20264;-47
2022/12/14 01:17:50;;;;;;;320.07;84.00;;;;;;;;;;5056522;28;20219;-46
2022/12/14 01:20:16;;;;;;;299.93;77.00;;;;;;;;;;5046301;28;20207;-47
2022/12/14 01:22:42;;;;;;;333.80;79.67;;;;;;;;;;5057871;28;20192;-47
2022/12/14 01:25:08;;;;;;;258.50;68.83;;;;;;;;;;5056020;28;20303;-49
2022/12/14 01:27:34;;;;;;;335.77;77.30;;;;;;;;;;5054985;28;20694;-49
2022/12/14 01:30:01;;;;;;;339.80;82.77;;;;;;;;;;5062322;28;20679;-49
2022/12/14 01:32:26;;;;;;;351.33;80.23;;;;;;;;;;5061192;28;20258;-49
2022/12/14 01:34:52;;;;;;;360.87;83.17;;;;;;;;;;5059678;28;20172;-47
2022/12/14 01:37:18;;;;;;;328.40;81.50;;;;;;;;;;5057889;28;20234;-46
2022/12/14 01:39:44;;;;;;;322.17;79.57;;;;;;;;;;5061599;28;20238;-46
2022/12/14 01:42:11;;;;;;;352.40;82.23;;;;;;;;;;5053877;28;20423;-46
2022/12/14 01:44:40;;;;;;;288.43;73.27;;;;;;;;;;5055341;28;20262;-46
2022/12/14 01:47:26;;;;;;;349.83;82.20;;;;;;;;;;5047677;28;20242;-47
2022/12/14 01:49:59;;;;;;;341.20;80.33;;;;;;;;;;5044043;28;20575;-46
2022/12/14 01:52:33;;;;;;;351.73;79.20;;;;;;;;;;5041604;28;20264;-47
2022/12/14 01:55:02;;;;;;;314.83;75.63;;;;;;;;;;5025193;28;20219;-47
2022/12/14 01:57:40;;;;;;;316.40;75.60;;;;;;;;;;5048328;28;20223;-47
2022/12/14 02:00:07;;;;;;;280.40;66.43;;;;;;;;;;5065455;28;20273;-47
2022/12/14 02:02:34;;;;;;;323.30;75.03;;;;;;;;;;5061560;28;20222;-49
2022/12/14 02:05:01;;;;;;;316.47;71.63;;;;;;;;;;5046856;28;20199;-47
2022/12/14 02:07:28;;;;;;;319.43;73.23;;;;;;;;;;5063069;28;20245;-47
2022/12/14 02:09:56;;;;;;;322.70;79.37;;;;;;;;;;5056899;28;20207;-47
2022/12/14 02:12:28;;;;;;;323.57;77.90;;;;;;;;;;5064825;28;20231;-47
2022/12/14 02:14:55;;;;;;;321.60;77.03;;;;;;;;;;5053863;28;20215;-47
2022/12/14 02:17:21;;;;;;;343.70;79.37;;;;;;;;;;5060023;28;20699;-47
2022/12/14 02:19:48;;;;;;;314.87;74.37;;;;;;;;;;5065969;28;20268;-47
2022/12/14 02:22:26;;;;;;;337.50;81.33;;;;;;;;;;5054430;28;20322;-47
2022/12/14 02:24:52;;;;;;;297.63;77.07;;;;;;;;;;5056605;28;20218;-49
2022/12/14 02:27:21;;;;;;;312.93;71.73;;;;;;;;;;5064308;28;20306;-46
2022/12/14 02:29:53;;;;;;;294.80;74.00;;;;;;;;;;5058330;28;20657;-49
2022/12/14 02:32:34;;;;;;;247.80;63.87;;;;;;;;;;5062979;28;20564;-49
2022/12/14 02:35:06;;;;;;;306.37;85.00;;;;;;;;;;5052993;28;20183;-49
2022/12/14 02:37:44;;;;;;;279.70;75.57;;;;;;;;;;5048812;28;20206;-49
2022/12/14 02:40:31;;;;;;;348.73;87.53;;;;;;;;;;5059635;28;20293;-47
2022/12/14 02:43:18;;;;;;;324.43;82.97;;;;;;;;;;5055524;28;20354;-47
2022/12/14 02:45:50;;;;;;;346.87;82.37;;;;;;;;;;5050965;28;20215;-47
2022/12/14 02:48:18;;;;;;;336.93;87.60;;;;;;;;;;5051687;28;20214;-47
2022/12/14 02:51:02;;;;;;;356.60;91.60;;;;;;;;;;5050728;28;20211;-47
2022/12/14 02:53:36;;;;;;;293.10;80.73;;;;;;;;;;5054701;28;20690;-47
2022/12/14 02:56:05;;;;;;;297.27;82.03;;;;;;;;;;5044922;28;20273;-49
2022/12/14 02:58:34;;;;;;;294.30;71.57;;;;;;;;;;5048416;28;20294;-48
2022/12/14 03:01:01;;;;;;;356.30;88.67;;;;;;;;;;5059543;28;20212;-47
2022/12/14 03:03:26;;;;;;;294.67;86.10;;;;;;;;;;5053225;28;20214;-47
2022/12/14 03:05:56;;;;;;;309.27;86.90;;;;;;;;;;5063194;28;20737;-47
2022/12/14 03:08:23;;;;;;;317.87;79.80;;;;;;;;;;5062049;28;20681;-48
2022/12/14 03:10:56;;;;;;;355.10;88.20;;;;;;;;;;5055983;28;20178;-47
2022/12/14 03:13:45;;;;;;;329.70;83.57;;;;;;;;;;5044248;28;20257;-47
2022/12/14 03:16:23;;;;;;;310.20;78.47;;;;;;;;;;5050605;28;20680;-47
2022/12/14 03:18:54;;;;;;;339.73;84.17;;;;;;;;;;5055098;28;20570;-48
2022/12/14 03:21:22;;;;;;;302.37;74.50;;;;;;;;;;5050983;28;20226;-48
2022/12/14 03:23:48;;;;;;;346.60;90.47;;;;;;;;;;5065027;28;20598;-48
2022/12/14 03:26:14;;;;;;;358.40;85.20;;;;;;;;;;5060585;28;20202;-48
2022/12/14 03:28:57;;;;;;;298.47;70.80;;;;;;;;;;5061217;28;20632;-48
2022/12/14 03:31:32;;;;;;;325.87;79.43;;;;;;;;;;5057387;28;20196;-48
2022/12/14 03:33:58;;;;;;;331.60;77.33;;;;;;;;;;5053681;28;20520;-48
2022/12/14 03:36:26;;;;;;;277.73;73.23;;;;;;;;;;5066019;28;20215;-48
2022/12/14 03:38:55;;;;;;;311.57;73.67;;;;;;;;;;5043305;28;20222;-47
2022/12/14 03:41:27;;;;;;;323.40;77.33;;;;;;;;;;5055560;28;20217;-48
2022/12/14 03:43:56;;;;;;;303.97;74.30;;;;;;;;;;5066559;28;20206;-48
2022/12/14 03:46:40;;;;;;;301.60;69.20;;;;;;;;;;5059921;28;20215;-48
2022/12/14 03:49:17;;;;;;;306.97;74.13;;;;;;;;;;5066773;28;20203;-48
2022/12/14 03:51:54;;;;;;;311.70;74.17;;;;;;;;;;5053737;28;20199;-48
2022/12/14 03:54:24;;;;;;;271.30;66.83;;;;;;;;;;5048799;28;20271;-48
2022/12/14 03:56:53;;;;;;;302.13;65.50;;;;;;;;;;5059427;28;20211;-47
2022/12/14 03:59:38;;;;;;;312.97;72.13;;;;;;;;;;5049780;28;20243;-47
2022/12/14 04:02:04;;;;;;;311.57;74.07;;;;;;;;;;5063431;28;20623;-48
2022/12/14 04:04:35;;;;;;;326.83;75.83;;;;;;;;;;5058103;28;20295;-48
2022/12/14 04:07:17;;;;;;;319.70;74.47;;;;;;;;;;5054608;28;20768;-48
2022/12/14 04:09:48;;;;;;;304.07;72.70;;;;;;;;;;5057493;28;20688;-47
2022/12/14 04:21:11;;;;;;;346.03;82.67;;;;;;;;;;5058614;28;20769;-48
2022/12/14 04:26:28;;;;;;;311.40;76.13;;;;;;;;;;5065585;28;20232;-47
2022/12/14 04:31:54;;;;;;;300.27;80.77;;;;;;;;;;5059454;28;20264;-52
2022/12/14 04:34:22;;;;;;;279.63;72.00;;;;;;;;;;5059057;28;20231;-48
2022/12/14 04:36:51;;;;;;;308.50;74.00;;;;;;;;;;5057542;28;20349;-48
2022/12/14 04:39:24;;;;;;;298.37;71.57;;;;;;;;;;5058934;28;20295;-48
2022/12/14 04:41:53;;;;;;;325.80;77.67;;;;;;;;;;5059024;28;20234;-48
2022/12/14 04:44:24;;;;;;;281.67;67.83;;;;;;;;;;5059523;28;20256;-48
2022/12/14 04:46:52;;;;;;;302.90;69.10;;;;;;;;;;5045968;28;20257;-48
2022/12/14 04:49:18;;;;;;;273.23;63.83;;;;;;;;;;5060040;28;20203;-48
2022/12/14 04:51:54;;;;;;;319.80;70.77;;;;;;;;;;5054424;28;20575;-47
2022/12/14 04:54:21;;;;;;;324.57;75.57;;;;;;;;;;5052015;28;20237;-47
2022/12/14 04:56:57;;;;;;;300.23;77.90;;;;;;;;;;5057209;28;20203;-48
2022/12/14 04:59:23;;;;;;;338.77;76.20;;;;;;;;;;5066231;28;20256;-47
2022/12/14 05:01:55;;;;;;;356.67;83.70;;;;;;;;;;5061286;28;20179;-48
2022/12/14 05:04:30;;;;;;;325.93;75.20;;;;;;;;;;5054643;28;20204;-48
2022/12/14 05:07:02;;;;;;;291.77;67.70;;;;;;;;;;5057267;28;20638;-47
2022/12/14 05:09:48;;;;;;;325.47;71.47;;;;;;;;;;5061190;28;20702;-48
2022/12/14 05:12:20;;;;;;;306.93;72.47;;;;;;;;;;5042670;28;20217;-47
2022/12/14 05:14:52;;;;;;;305.70;75.63;;;;;;;;;;5066261;28;20211;-47
2022/12/14 05:17:18;;;;;;;302.53;66.97;;;;;;;;;;5052634;28;20231;-47
2022/12/14 05:19:48;;;;;;;326.70;75.83;;;;;;;;;;5060547;28;20203;-47
2022/12/14 05:22:15;;;;;;;293.83;68.70;;;;;;;;;;5050318;28;20219;-47
2022/12/14 05:24:41;;;;;;;309.83;71.97;;;;;;;;;;5058891;28;20282;-47
2022/12/14 05:27:07;;;;;;;330.87;85.17;;;;;;;;;;5054705;28;20207;-46
2022/12/14 05:29:33;;;;;;;324.90;76.73;;;;;;;;;;5061339;28;20278;-47
2022/12/14 05:32:00;;;;;;;314.03;82.47;;;;;;;;;;5049732;28;20180;-47
2022/12/14 05:34:26;;;;;;;290.50;72.03;;;;;;;;;;5061725;28;20258;-47
2022/12/14 05:36:52;;;;;;;323.50;85.73;;;;;;;;;;5054812;28;20718;-47
2022/12/14 05:39:18;;;;;;;317.50;73.50;;;;;;;;;;5050361;28;20700;-47
2022/12/14 05:41:44;;;;;;;320.70;75.80;;;;;;;;;;5055510;28;20226;-47
2022/12/14 05:44:10;;;;;;;322.43;74.23;;;;;;;;;;5056986;28;20203;-47
2022/12/14 05:46:36;;;;;;;344.07;82.23;;;;;;;;;;5058906;28;20221;-46
2022/12/14 05:49:02;;;;;;;346.20;91.10;;;;;;;;;;5050008;28;20237;-46
2022/12/14 05:51:28;;;;;;;369.87;108.77;;;;;;;;;;5054546;28;20692;-47
2022/12/14 05:53:54;;;;;;;353.83;107.17;;;;;;;;;;5049186;28;20246;-46
2022/12/14 05:56:20;;;;;;;351.83;116.17;;;;;;;;;;5056333;28;20247;-46
2022/12/14 05:58:49;;;;;;;358.37;110.73;;;;;;;;;;5061410;28;20186;-47
2022/12/14 06:01:14;;;;;;;368.70;113.63;;;;;;;;;;5054842;28;20199;-47
2022/12/14 06:03:41;;;;;;;355.07;106.70;;;;;;;;;;5052307;28;20280;-46
2022/12/14 06:06:08;;;;;;;362.40;112.27;;;;;;;;;;5057134;28;20223;-47
2022/12/14 06:08:38;;;;;;;340.07;105.30;;;;;;;;;;5048263;28;20218;-47
2022/12/14 06:11:07;;;;;;;389.37;116.53;;;;;;;;;;5059130;28;20182;-47
2022/12/14 06:13:33;;;;;;;305.20;94.50;;;;;;;;;;5047351;28;20281;-49
2022/12/14 06:16:20;;;;;;;305.00;94.47;;;;;;;;;;5046251;28;20660;-47
2022/12/14 06:18:47;;;;;;;384.77;109.93;;;;;;;;;;5049516;28;20206;-49
2022/12/14 06:21:14;;;;;;;404.03;119.57;;;;;;;;;;5041777;28;20664;-48
2022/12/14 06:23:40;;;;;;;370.83;106.80;;;;;;;;;;5044738;28;20215;-48
2022/12/14 06:26:07;;;;;;;346.90;92.70;;;;;;;;;;5041034;28;20246;-49
2022/12/14 06:28:33;;;;;;;364.60;95.07;;;;;;;;;;5043407;28;20168;-49
2022/12/14 06:31:00;;;;;;;317.30;82.97;;;;;;;;;;5041574;28;20632;-48
2022/12/14 06:33:26;;;;;;;357.07;92.83;;;;;;;;;;5041940;28;20345;-49
2022/12/14 06:35:52;;;;;;;365.77;96.93;;;;;;;;;;5058029;28;20211;-49
2022/12/14 06:38:18;;;;;;;341.50;102.00;;;;;;;;;;5053410;28;20272;-48
2022/12/14 06:40:44;;;;;;;316.97;91.43;;;;;;;;;;5043831;28;20176;-49
2022/12/14 06:43:11;;;;;;;330.77;88.00;;;;;;;;;;5062450;28;20222;-49
2022/12/14 06:45:37;;;;;;;383.17;108.50;;;;;;;;;;5051894;28;20305;-48
2022/12/14 06:48:03;;;;;;;380.00;108.93;;;;;;;;;;5061741;28;20214;-48
2022/12/14 06:50:30;;;;;;;398.30;113.70;;;;;;;;;;5062844;28;20342;-49
2022/12/14 06:52:56;;;;;;;369.57;120.23;;;;;;;;;;5059153;28;20397;-48
2022/12/14 06:55:25;;;;;;;406.27;107.80;;;;;;;;;;5064568;28;20737;-49
2022/12/14 06:57:52;;;;;;;370.10;102.93;;;;;;;;;;5065694;28;20275;-48
2022/12/14 07:00:19;;;;;;;363.87;107.00;;;;;;;;;;5067366;28;20273;-49
2022/12/14 07:02:45;;;;;;;375.30;117.40;;;;;;;;;;5067173;28;20918;-49
2022/12/14 07:05:11;;;;;;;368.90;101.43;;;;;;;;;;5067656;28;20198;-48
2022/12/14 07:07:37;;;;;;;418.47;123.53;;;;;;;;;;5064359;28;20174;-48
2022/12/14 07:10:04;;;;;;;426.37;118.83;;;;;;;;;;5046509;28;20301;-48
2022/12/14 07:12:30;;;;;;;416.73;116.00;;;;;;;;;;5044727;28;20583;-48
2022/12/14 07:14:57;;;;;;;289.80;93.10;;;;;;;;;;5053849;28;20256;-50
2022/12/14 07:17:23;;;;;;;391.97;106.03;;;;;;;;;;5066886;28;20751;-49
2022/12/14 07:19:49;;;;;;;375.40;99.07;;;;;;;;;;5067264;28;20179;-50
2022/12/14 07:22:15;;;;;;;392.03;126.80;;;;;;;;;;5060174;28;20213;-49
2022/12/14 07:24:42;;;;;;;334.23;109.00;;;;;;;;;;5065150;28;20677;-49
2022/12/14 07:27:08;;;;;;;406.33;115.20;;;;;;;;;;5063494;28;20255;-49
2022/12/14 07:29:34;;;;;;;413.13;125.33;;;;;;;;;;5059917;28;20280;-49
2022/12/14 07:32:00;;;;;;;375.30;112.43;;;;;;;;;;5065853;28;20532;-49
2022/12/14 07:34:26;;;;;;;409.50;131.30;;;;;;;;;;5057328;28;20739;-49
2022/12/14 07:36:52;;;;;;;435.40;133.63;;;;;;;;;;5045842;28;20219;-48
2022/12/14 07:39:19;;;;;;;361.33;111.60;;;;;;;;;;5055847;28;20230;-48
2022/12/14 07:41:46;;;;;;;412.83;118.77;;;;;;;;;;5063910;28;20345;-48
2022/12/14 07:44:12;;;;;;;368.23;120.77;;;;;;;;;;5065373;28;20193;-49
2022/12/14 07:46:39;;;;;;;347.50;107.57;;;;;;;;;;5065965;28;20208;-49
2022/12/14 07:49:05;;;;;;;360.87;118.13;;;;;;;;;;5066217;28;20214;-48
2022/12/14 07:51:33;;;;;;;363.93;117.47;;;;;;;;;;5061394;28;20218;-49
2022/12/14 07:54:00;;;;;;;369.17;113.50;;;;;;;;;;5045868;28;20270;-49
2022/12/14 07:56:28;;;;;;;375.77;120.07;;;;;;;;;;5061091;28;20687;-48
2022/12/14 07:58:55;;;;;;;381.17;118.87;;;;;;;;;;5064346;28;20234;-48
2022/12/14 08:01:22;;;;;;;386.33;123.07;;;;;;;;;;5054627;28;20215;-48
2022/12/14 08:03:49;;;;;;;383.87;130.90;;;;;;;;;;5046299;28;20223;-48
2022/12/14 08:06:16;;;;;;;399.77;134.23;;;;;;;;;;5045669;28;20227;-49
2022/12/14 08:08:42;;;;;;;367.10;121.43;;;;;;;;;;5043768;28;20266;-48
2022/12/14 08:11:08;;;;;;;400.03;136.30;;;;;;;;;;5043438;28;20247;-49
2022/12/14 08:13:35;;;;;;;391.70;119.30;;;;;;;;;;5045313;28;20215;-48
2022/12/14 08:16:02;;;;;;;319.27;97.67;;;;;;;;;;5046138;28;20694;-48
2022/12/14 08:18:28;;;;;;;339.33;99.53;;;;;;;;;;5044055;28;20672;-48
2022/12/14 08:20:54;;;;;;;284.07;94.03;;;;;;;;;;5045373;28;20226;-48
2022/12/14 08:23:20;;;;;;;327.13;103.40;;;;;;;;;;5044472;28;20553;-49
2022/12/14 08:25:51;;;;;;;390.60;129.57;;;;;;;;;;5043002;28;20191;-48
2022/12/14 08:28:17;;;;;;;375.40;125.53;;;;;;;;;;5045907;28;20298;-48
2022/12/14 08:30:43;;;;;;;390.43;127.63;;;;;;;;;;5059471;28;20817;-49
2022/12/14 08:33:09;;;;;;;410.87;128.77;;;;;;;;;;5043949;28;20287;-48
2022/12/14 08:35:35;;;;;;;350.80;121.53;;;;;;;;;;5045463;28;20539;-48
2022/12/14 08:38:02;;;;;;;368.60;115.27;;;;;;;;;;5044821;28;20211;-49
2022/12/14 08:40:28;;;;;;;377.90;125.93;;;;;;;;;;5043805;28;20186;-48
2022/12/14 08:42:55;;;;;;;365.23;110.87;;;;;;;;;;5055283;28;20364;-48
2022/12/14 08:45:21;;;;;;;406.57;129.97;;;;;;;;;;5065096;28;20222;-49
2022/12/14 08:47:48;;;;;;;370.47;121.17;;;;;;;;;;5062637;28;20287;-49
2022/12/14 08:50:15;;;;;;;313.00;98.13;;;;;;;;;;5063763;28;20261;-48
2022/12/14 08:52:41;;;;;;;393.60;128.00;;;;;;;;;;5064451;28;20225;-49
2022/12/14 08:55:08;;;;;;;405.33;123.97;;;;;;;;;;5052145;28;20436;-49
2022/12/14 08:57:34;;;;;;;335.80;116.87;;;;;;;;;;5060332;28;20221;-48
2022/12/14 09:00:00;;;;;;;402.33;123.23;;;;;;;;;;5063262;28;20263;-48
2022/12/14 09:02:26;;;;;;;374.70;115.70;;;;;;;;;;5063162;28;20249;-48
2022/12/14 09:04:53;;;;;;;433.60;134.13;;;;;;;;;;5052907;28;20176;-48
2022/12/14 09:07:19;;;;;;;404.73;126.40;;;;;;;;;;5044654;28;20211;-48
2022/12/14 09:09:45;;;;;;;395.53;132.43;;;;;;;;;;5063988;28;20218;-48
2022/12/14 09:12:11;;;;;;;354.50;121.53;;;;;;;;;;5054576;28;20218;-48
2022/12/14 09:14:38;;;;;;;371.67;117.43;;;;;;;;;;5061833;28;20211;-49
2022/12/14 09:17:04;;;;;;;399.30;112.53;;;;;;;;;;5043546;28;20172;-49
2022/12/14 09:19:31;;;;;;;465.53;142.47;;;;;;;;;;5042749;28;20186;-49
2022/12/14 09:21:57;;;;;;;437.00;133.80;;;;;;;;;;5044037;28;20203;-49
2022/12/14 09:24:23;;;;;;;464.77;139.63;;;;;;;;;;5055744;28;20219;-49
2022/12/14 09:26:51;;;;;;;428.90;140.13;;;;;;;;;;5061856;28;20229;-48
2022/12/14 09:29:18;;;;;;;457.07;143.30;;;;;;;;;;5064093;28;20175;-48
2022/12/14 09:31:46;;;;;;;439.07;137.27;;;;;;;;;;5048872;28;20647;-48
2022/12/14 09:34:12;;;;;;;392.50;140.17;;;;;;;;;;5063371;28;20211;-48
2022/12/14 09:36:38;;;;;;;416.87;132.93;;;;;;;;;;5043935;28;20289;-47
2022/12/14 09:39:04;;;;;;;443.50;142.03;;;;;;;;;;5058168;28;20217;-48
2022/12/14 09:41:34;;;;;;;397.80;114.97;;;;;;;;;;5046756;28;20292;-48
2022/12/14 09:44:18;;;;;;;399.77;131.17;;;;;;;;;;5044489;28;20679;-48
2022/12/14 09:46:50;;;;;;;425.03;130.53;;;;;;;;;;5042394;28;20621;-47
2022/12/14 09:49:24;;;;;;;463.50;148.60;;;;;;;;;;5043852;28;20268;-48
2022/12/14 09:51:51;;;;;;;407.77;129.03;;;;;;;;;;5042622;28;20242;-48
2022/12/14 09:54:19;;;;;;;403.63;125.57;;;;;;;;;;5043581;28;20216;-48
2022/12/14 09:56:45;;;;;;;412.33;141.33;;;;;;;;;;5042220;28;20254;-47
2022/12/14 09:59:14;;;;;;;412.33;125.67;;;;;;;;;;5042913;28;20255;-48
2022/12/14 10:01:46;;;;;;;459.87;147.30;;;;;;;;;;5043759;28;20204;-48
2022/12/14 10:04:12;;;;;;;413.00;143.90;;;;;;;;;;5043339;28;20463;-49
2022/12/14 10:06:46;;;;;;;449.13;139.80;;;;;;;;;;5046326;28;20271;-47
2022/12/14 10:09:30;;;;;;;452.43;141.67;;;;;;;;;;5057949;28;20207;-48
2022/12/14 10:11:56;;;;;;;473.03;152.33;;;;;;;;;;5040481;28;20223;-48
2022/12/14 10:14:28;;;;;;;440.67;146.10;;;;;;;;;;5042633;28;20653;-48
2022/12/14 10:17:13;;;;;;;467.77;159.63;;;;;;;;;;5046508;28;20269;-48
2022/12/14 10:19:53;;;;;;;383.23;128.03;;;;;;;;;;5041710;28;20236;-48
2022/12/14 10:22:21;;;;;;;464.33;156.23;;;;;;;;;;5041106;28;20297;-48
2022/12/14 10:24:51;;;;;;;470.13;158.07;;;;;;;;;;5022196;28;20250;-48
2022/12/14 10:27:27;;;;;;;428.30;151.73;;;;;;;;;;5042040;28;20227;-48
2022/12/14 10:29:56;;;;;;;420.83;154.20;;;;;;;;;;5036665;28;20247;-48
2022/12/14 10:32:29;;;;;;;445.50;162.87;;;;;;;;;;5058385;28;20226;-48
2022/12/14 10:34:55;;;;;;;426.60;157.30;;;;;;;;;;5052252;28;20523;-48
2022/12/14 10:37:24;;;;;;;409.10;157.13;;;;;;;;;;5041447;28;20353;-48
2022/12/14 10:39:59;;;;;;;436.97;157.53;;;;;;;;;;5041000;28;20223;-50
2022/12/14 10:42:36;;;;;;;446.60;166.33;;;;;;;;;;5039328;28;20226;-51
2022/12/14 10:45:08;;;;;;;450.97;159.70;;;;;;;;;;5041388;28;20215;-50
2022/12/14 10:47:37;;;;;;;456.40;170.23;;;;;;;;;;5042464;28;20207;-51
2022/12/14 10:50:03;;;;;;;476.27;175.97;;;;;;;;;;5039589;28;20186;-49
2022/12/14 10:52:34;;;;;;;467.70;167.70;;;;;;;;;;5041911;28;20215;-49
2022/12/14 10:55:19;;;;;;;472.70;178.10;;;;;;;;;;5049691;28;20203;-48
2022/12/14 10:57:46;;;;;;;466.90;175.37;;;;;;;;;;5039864;28;20286;-49
2022/12/14 11:00:16;;;;;;;468.20;188.83;;;;;;;;;;5038409;28;20778;-49
2022/12/14 11:02:43;;;;;;;429.30;162.87;;;;;;;;;;5040467;28;20183;-50
2022/12/14 11:05:29;;;;;;;451.20;173.40;;;;;;;;;;5043348;28;20171;-49
2022/12/14 11:07:55;;;;;;;442.10;168.80;;;;;;;;;;5042281;28;20168;-49
2022/12/14 11:10:49;;;;;;;478.80;175.33;;;;;;;;;;5042958;28;20199;-50
2022/12/14 11:13:15;;;;;;;413.57;167.53;;;;;;;;;;5040267;28;20214;-50
2022/12/14 11:15:42;;;;;;;500.07;189.73;;;;;;;;;;5043313;28;20422;-49
2022/12/14 11:18:11;;;;;;;474.30;193.93;;;;;;;;;;5037036;28;20179;-49
2022/12/14 11:20:48;;;;;;;518.03;219.18;;;;;;;;;;5052180;28;20466;-49
2022/12/14 11:23:17;;;;;;;502.50;215.00;;;;;;;;;;5050628;28;20203;-49
2022/12/14 11:25:45;;;;;;;501.73;210.23;;;;;;;;;;5059413;28;20202;-49
2022/12/14 11:28:16;;;;;;;484.30;194.27;;;;;;;;;;5049352;28;20369;-50
2022/12/14 11:30:55;;;;;;;487.50;199.50;;;;;;;;;;5044809;28;20666;-49
2022/12/14 11:33:21;;;;;;;498.87;199.50;;;;;;;;;;5044217;28;20211;-49
2022/12/14 11:35:51;;;;;;;495.87;203.07;;;;;;;;;;5045023;28;20187;-49
2022/12/14 11:38:17;;;;;;;466.63;188.63;;;;;;;;;;5050083;28;20259;-50
2022/12/14 11:40:43;;;;;;;449.80;185.83;;;;;;;;;;5044584;28;20596;-48
2022/12/14 11:43:37;;;;;;;419.07;169.97;;;;;;;;;;5047920;28;20214;-49
2022/12/14 11:46:03;;;;;;;523.13;214.63;;;;;;;;;;5045762;28;20664;-50
2022/12/14 11:48:29;;;;;;;523.97;211.30;;;;;;;;;;5046873;28;20180;-49
2022/12/14 11:51:09;;;;;;;496.93;205.67;;;;;;;;;;5045299;28;20373;-49
2022/12/14 11:53:35;;;;;;;506.10;203.43;;;;;;;;;;5027533;28;20200;-49
2022/12/14 11:56:03;;;;;;;507.77;209.57;;;;;;;;;;5027280;28;20647;-48
2022/12/14 11:58:46;;;;;;;518.13;206.87;;;;;;;;;;5026870;28;20182;-49
2022/12/14 12:01:13;;;;;;;514.13;209.50;;;;;;;;;;5043928;28;20175;-49
2022/12/14 12:03:47;;;;;;;537.70;222.80;;;;;;;;;;5046674;28;20602;-49
2022/12/14 12:06:15;;;;;;;590.80;255.57;;;;;;;;;;5040517;28;20223;-49
2022/12/14 12:08:43;;;;;;;483.37;203.93;;;;;;;;;;5050670;28;20458;-48
2022/12/14 12:11:17;;;;;;;514.30;213.13;;;;;;;;;;5055394;28;20219;-50
2022/12/14 12:13:46;;;;;;;533.77;223.63;;;;;;;;;;5055838;28;20236;-48
2022/12/14 12:16:16;;;;;;;519.63;212.60;;;;;;;;;;5063011;28;20272;-49
2022/12/14 12:18:47;;;;;;;505.93;208.20;;;;;;;;;;5063562;28;20222;-49
2022/12/14 12:21:16;;;;;;;539.40;225.73;;;;;;;;;;5056522;28;20306;-49
2022/12/14 12:24:04;;;;;;;528.30;221.33;;;;;;;;;;5043849;28;20235;-49
2022/12/14 12:26:32;;;;;;;558.10;231.20;;;;;;;;;;5027404;28;20223;-49
2022/12/14 12:29:03;;;;;;;485.73;202.10;;;;;;;;;;5046082;28;20211;-49
2022/12/14 12:31:32;;;;;;;515.40;210.33;;;;;;;;;;5054261;28;20331;-50
2022/12/14 12:34:10;;;;;;;544.90;218.23;;;;;;;;;;5045034;28;20338;-50
2022/12/14 12:36:37;;;;;;;525.73;219.57;;;;;;;;;;5044112;28;20310;-50
2022/12/14 12:39:13;;;;;;;512.70;214.40;;;;;;;;;;5055558;28;20253;-48
2022/12/14 12:41:56;;;;;;;550.33;235.27;;;;;;;;;;5061653;28;20238;-49
2022/12/14 12:44:34;;;;;;;560.63;230.93;;;;;;;;;;5060267;28;20385;-49
2022/12/14 12:47:04;;;;;;;549.77;228.63;;;;;;;;;;5054557;28;20286;-49
2022/12/14 12:49:30;;;;;;;537.07;226.87;;;;;;;;;;5041365;28;20493;-49
2022/12/14 12:51:59;;;;;;;626.43;256.33;;;;;;;;;;5037597;28;20183;-49
2022/12/14 12:54:37;;;;;;;546.83;228.73;;;;;;;;;;5040335;28;20283;-49
2022/12/14 12:57:04;;;;;;;581.30;237.10;;;;;;;;;;5043534;28;20218;-49
2022/12/14 12:59:40;;;;;;;557.63;241.10;;;;;;;;;;5042968;28;20219;-49
2022/12/14 13:02:29;;;;;;;510.73;216.30;;;;;;;;;;5058097;28;20705;-49
2022/12/14 13:04:56;;;;;;;549.00;227.20;;;;;;;;;;5044607;28;20211;-49
2022/12/14 13:07:27;;;;;;;485.17;201.47;;;;;;;;;;5051308;28;20259;-49
2022/12/14 13:10:29;;;;;;;477.03;200.13;;;;;;;;;;5051216;28;20203;-50
2022/12/14 13:13:01;;;;;;;514.47;211.93;;;;;;;;;;4968325;28;20244;-49
2022/12/14 13:15:32;;;;;;;515.87;219.53;;;;;;;;;;5039905;28;20219;-50
2022/12/14 13:18:07;;;;;;;503.00;215.03;;;;;;;;;;5061949;28;20226;-49
2022/12/14 13:20:34;;;;;;;517.03;217.77;;;;;;;;;;5059163;28;20306;-49
2022/12/14 13:23:01;;;;;;;509.93;215.03;;;;;;;;;;5033487;28;20668;-48
2022/12/14 13:25:33;;;;;;;525.37;219.83;;;;;;;;;;5051382;28;20296;-49
2022/12/14 13:28:05;;;;;;;491.23;205.97;;;;;;;;;;5048614;28;20215;-49
2022/12/14 13:30:50;;;;;;;508.60;217.10;;;;;;;;;;5056345;28;20214;-49
2022/12/14 13:33:44;;;;;;;518.20;216.70;;;;;;;;;;5057911;28;20410;-50
2022/12/14 13:36:22;;;;;;;545.13;233.37;;;;;;;;;;5055047;28;20305;-49
2022/12/14 13:38:58;;;;;;;488.67;200.57;;;;;;;;;;5051556;28;20226;-49
2022/12/14 13:41:42;;;;;;;511.90;216.73;;;;;;;;;;5048891;28;20211;-50
2022/12/14 13:44:26;;;;;;;489.27;209.60;;;;;;;;;;5045064;28;20231;-50
2022/12/14 13:46:56;;;;;;;513.33;210.70;;;;;;;;;;5038628;28;20250;-50
2022/12/14 13:49:22;;;;;;;524.50;220.27;;;;;;;;;;5052231;28;20193;-50
2022/12/14 13:51:49;;;;;;;546.73;226.80;;;;;;;;;;5052786;28;20223;-49
2022/12/14 13:54:22;;;;;;;515.93;216.17;;;;;;;;;;5052498;28;20231;-50
2022/12/14 13:56:48;;;;;;;573.93;240.37;;;;;;;;;;5038542;28;20229;-49
2022/12/14 13:59:26;;;;;;;517.10;221.23;;;;;;;;;;5041404;28;20226;-50
2022/12/14 14:01:54;;;;;;;532.43;222.47;;;;;;;;;;5023508;28;20227;-49
2022/12/14 14:04:21;;;;;;;546.77;230.60;;;;;;;;;;5034838;28;20229;-50
2022/12/14 14:06:48;;;;;;;557.33;237.63;;;;;;;;;;5060970;28;20904;-50
2022/12/14 14:09:23;;;;;;;522.83;212.37;;;;;;;;;;5049136;28;20226;-50
2022/12/14 14:11:57;;;;;;;543.00;227.87;;;;;;;;;;5046257;28;20695;-50
2022/12/14 14:14:35;;;;;;;528.03;218.03;;;;;;;;;;5042900;28;20265;-49
2022/12/14 14:17:20;;;;;;;548.80;230.43;;;;;;;;;;5047059;28;20293;-50
2022/12/14 14:19:46;;;;;;;517.23;213.20;;;;;;;;;;5040729;28;20395;-50
2022/12/14 14:22:17;;;;;;;493.33;207.03;;;;;;;;;;5044586;28;20266;-49
2022/12/14 14:24:56;;;;;;;517.20;209.87;;;;;;;;;;5057076;28;20242;-49
2022/12/14 14:27:34;;;;;;;544.43;232.60;;;;;;;;;;5053926;28;20707;-49